Pagrindinis puslapis
METAR-TAF:

METAR-TAF

Oro uostai :

Erzindžanas, Turkija

platuma: 39-44N, ilguma: 039-30E, Aukštis: 1156 m

Dabartinis oras

Ataskaita buvo paskelbta 52 minutes, ne 05:50 UTC
Vėjas 2 kt nuo kintamojo kryptimis
Temperatūra -1°C
Drėgmė 59%
Slėgis 1020 hPa
Matomumas 10 km arba daugiau
nėra debesų žemiau 1500 m ir nėra kamuolinių lietaus debesų

METAR: LTCD 260550Z VRB02KT CAVOK M01/M08 Q1020 NOSIG

Laikas: 09:42 (06:42 UTC)

Prognozė

Ataskaita buvo paskelbta 2 valandos ir 2 minutes, ne 04:40 UTC
Prognozė galioja nuo 26 metu 06 UTC su 26 metu 15 UTC
Vėjas 2 kt nuo kintamojo kryptimis
Matomumas 10 km arba daugiau
nėra debesų žemiau 1500 m ir nėra kamuolinių lietaus debesų

TAF: LTCD 260440Z 2606/2615 VRB02KT CAVOK

Orai ataskaitas ir orų prognozės (METAR, TAF).

turimą stotys yra geltonos ir raudonos taškus žemėlapyje.

Perkelti pele per norėdami pamatyti stoties vardą.

Tada spustelėkite, norėdami matyti oro stebėjimo ir prognozės.

Norėdami pakeisti žemėlapį: spustelėkite ant žalios mygtukų su juodo kryžiaus žemyn,; žalią mygtuką su brūkšneliu, jei norite nutolinti; arba žalių rodyklių gretimoms žemėlapius.


METAR-TAF: